Time;durP1;ratioP1;P1;durP2;ratioP2;P2;SDS_P1;SDS_P2;PMS_P1;PMS_P2;Temp;Humidity;BMP_temperature;BMP_pressure;BME280_temperature;BME280_humidity;BME280_pressure;Samples;Min_cycle;Max_cycle;Signal;HPM_P1;HPM_P2
2023/07/21 00:00:53;;;;;;;3.10;2.07;;;16.60;1.00;;;;;;5026053;28;20540;-89
2023/07/21 00:03:20;;;;;;;2.73;2.50;;;16.70;1.00;;;;;;5025837;28;20547;-89
2023/07/21 00:05:47;;;;;;;2.63;2.33;;;16.60;1.00;;;;;;5023794;28;20513;-88
2023/07/21 00:08:14;;;;;;;2.43;2.23;;;16.40;1.00;;;;;;5022420;28;20917;-88
2023/07/21 00:10:41;;;;;;;4.63;2.27;;;16.50;1.00;;;;;;5021827;28;20505;-90
2023/07/21 00:13:09;;;;;;;3.83;2.30;;;16.60;1.00;;;;;;5023151;28;20461;-89
2023/07/21 00:15:37;;;;;;;3.03;2.73;;;16.50;1.00;;;;;;5023093;28;20498;-89
2023/07/21 00:18:04;;;;;;;1.90;1.80;;;16.50;1.00;;;;;;5023210;28;20448;-89
2023/07/21 00:20:31;;;;;;;7.90;2.20;;;16.50;1.00;;;;;;5022403;28;20817;-89
2023/07/21 00:22:58;;;;;;;2.17;1.80;;;16.50;1.00;;;;;;5022457;28;21039;-89
2023/07/21 00:25:25;;;;;;;3.17;2.30;;;16.20;1.00;;;;;;5023707;28;20468;-88
2023/07/21 00:27:52;;;;;;;3.33;1.77;;;16.30;1.00;;;;;;5022788;28;20456;-90
2023/07/21 00:30:22;;;;;;;1.90;1.80;;;16.10;1.00;;;;;;5021646;28;20534;-89
2023/07/21 00:32:48;;;;;;;2.37;1.97;;;16.10;1.00;;;;;;5022384;28;20459;-89
2023/07/21 00:35:15;;;;;;;5.40;2.10;;;16.20;1.00;;;;;;5021525;28;20462;-89
2023/07/21 00:37:42;;;;;;;2.63;2.20;;;15.90;1.00;;;;;;5021516;28;20509;-88
2023/07/21 00:40:18;;;;;;;2.60;2.00;;;15.90;1.00;;;;;;5021600;28;20534;-89
2023/07/21 00:42:45;;;;;;;2.10;1.97;;;15.90;1.00;;;;;;5025488;28;20442;-89
2023/07/21 00:45:14;;;;;;;2.50;2.30;;;;;;;;;;5033195;28;20472;-89
2023/07/21 00:47:43;;;;;;;3.83;2.10;;;15.90;1.00;;;;;;5030787;28;20459;-88
2023/07/21 00:50:11;;;;;;;3.80;1.93;;;16.00;1.00;;;;;;5031449;28;20543;-89
2023/07/21 00:52:39;;;;;;;2.90;1.43;;;16.10;1.00;;;;;;5028670;28;20452;-88
2023/07/21 00:55:07;;;;;;;3.03;1.93;;;16.10;4.00;;;;;;5027898;28;20484;-89
2023/07/21 00:57:35;;;;;;;2.50;1.73;;;16.10;1.00;;;;;;5035983;28;20448;-89
2023/07/21 01:00:06;;;;;;;2.20;2.00;;;16.00;1.00;;;;;;5024844;28;20442;-89
2023/07/21 01:02:33;;;;;;;1.70;1.60;;;15.80;1.00;;;;;;5021493;28;20504;-89
2023/07/21 01:05:02;;;;;;;3.87;2.27;;;15.90;1.00;;;;;;5020638;28;20478;-89
2023/07/21 01:07:31;;;;;;;1.37;1.27;;;15.90;1.00;;;;;;5021601;28;20515;-89
2023/07/21 01:09:58;;;;;;;2.33;2.10;;;15.90;1.00;;;;;;5023013;28;20579;-88
2023/07/21 01:12:26;;;;;;;2.33;1.90;;;15.90;1.00;;;;;;5036818;28;20448;-88
2023/07/21 01:14:53;;;;;;;2.70;1.73;;;15.80;1.00;;;;;;5036861;28;20460;-88
2023/07/21 01:17:21;;;;;;;4.03;2.20;;;16.00;1.00;;;;;;5026228;28;20465;-89
2023/07/21 01:19:51;;;;;;;1.90;1.80;;;15.90;1.00;;;;;;5023666;28;20449;-89
2023/07/21 01:22:24;;;;;;;2.60;2.00;;;16.00;1.00;;;;;;5023846;28;20447;-88
2023/07/21 01:25:10;;;;;;;2.13;1.87;;;15.80;1.00;;;;;;5022852;28;20535;-89
2023/07/21 01:27:40;;;;;;;2.03;1.83;;;15.70;1.00;;;;;;5023193;28;20535;-89
2023/07/21 01:30:11;;;;;;;7.60;2.10;;;15.70;1.00;;;;;;5025106;28;20484;-90
2023/07/21 01:32:40;;;;;;;2.23;2.03;;;15.60;1.00;;;;;;5022174;28;20441;-90
2023/07/21 01:35:09;;;;;;;4.37;2.30;;;15.70;1.00;;;;;;5025971;28;20519;-89
2023/07/21 01:37:38;;;;;;;2.87;2.10;;;15.60;99.90;;;;;;5019957;28;20452;-89
2023/07/21 01:40:08;;;;;;;3.73;2.03;;;15.70;1.00;;;;;;5019031;28;20556;-89
2023/07/21 01:42:36;;;;;;;2.73;2.47;;;15.70;1.00;;;;;;5021154;28;20455;-89
2023/07/21 01:45:04;;;;;;;4.17;2.37;;;15.90;99.90;;;;;;5021021;28;20469;-88
2023/07/21 01:47:32;;;;;;;2.67;2.47;;;15.60;1.00;;;;;;5019443;28;20483;-89
2023/07/21 01:49:59;;;;;;;3.80;3.23;;;15.40;1.00;;;;;;5019374;28;20541;-89
2023/07/21 01:52:27;;;;;;;4.53;2.90;;;15.40;27.70;;;;;;5019430;28;20835;-89
2023/07/21 01:54:57;;;;;;;3.37;3.07;;;15.40;99.90;;;;;;5018605;28;20515;-89
2023/07/21 01:57:32;;;;;;;5.17;2.47;;;15.30;99.90;;;;;;5018100;28;20443;-89
2023/07/21 02:00:00;;;;;;;2.00;1.90;;;15.50;99.90;;;;;;5018777;28;20428;-89
2023/07/21 02:02:28;;;;;;;2.67;2.20;;;15.20;99.90;;;;;;5019148;28;20461;-89
2023/07/21 02:04:55;;;;;;;4.80;2.53;;;15.30;99.90;;;;;;5018577;28;20471;-89
2023/07/21 02:07:22;;;;;;;4.60;2.40;;;15.30;99.90;;;;;;5018636;28;20451;-89
2023/07/21 02:09:50;;;;;;;3.40;2.40;;;15.30;99.90;;;;;;5018150;28;20537;-89
2023/07/21 02:12:16;;;;;;;3.53;2.33;;;15.40;90.80;;;;;;5017483;28;20483;-89
2023/07/21 02:14:45;;;;;;;3.60;2.40;;;15.30;99.90;;;;;;5018720;28;20472;-89
2023/07/21 02:17:12;;;;;;;2.63;2.43;;;;;;;;;;5024609;28;20455;-89
2023/07/21 02:19:39;;;;;;;2.97;2.77;;;15.30;99.90;;;;;;5018949;28;20443;-89
2023/07/21 02:22:06;;;;;;;3.33;2.93;;;15.40;99.90;;;;;;5018684;28;20459;-89
2023/07/21 02:24:33;;;;;;;4.73;3.60;;;15.20;99.90;;;;;;5018018;28;20976;-89
2023/07/21 02:27:00;;;;;;;3.50;3.20;;;15.20;99.90;;;;;;5018774;28;20552;-89
2023/07/21 02:29:27;;;;;;;3.93;3.17;;;15.00;99.90;;;;;;5019832;28;20465;-90
2023/07/21 02:31:55;;;;;;;3.63;3.30;;;14.90;99.90;;;;;;5039490;28;20519;-89
2023/07/21 02:34:22;;;;;;;3.10;2.80;;;15.10;99.90;;;;;;5038721;28;20506;-89
2023/07/21 02:36:49;;;;;;;4.93;3.30;;;15.10;99.90;;;;;;5025595;28;20581;-88
2023/07/21 02:39:16;;;;;;;4.50;4.07;;;15.00;99.90;;;;;;5031981;28;20465;-89
2023/07/21 02:41:42;;;;;;;4.50;3.30;;;14.90;99.90;;;;;;5018605;28;20889;-89
2023/07/21 02:44:09;;;;;;;3.60;3.30;;;14.80;99.90;;;;;;5018376;28;20532;-89
2023/07/21 02:46:36;;;;;;;6.30;3.13;;;14.70;99.90;;;;;;5018544;28;20539;-89
2023/07/21 02:49:05;;;;;;;3.00;2.80;;;14.80;99.90;;;;;;5018684;28;20483;-89
2023/07/21 02:51:32;;;;;;;5.13;3.53;;;15.00;99.90;;;;;;5018517;28;20459;-89
2023/07/21 02:53:59;;;;;;;5.87;3.70;;;14.90;99.90;;;;;;5024760;28;20499;-89
2023/07/21 02:56:26;;;;;;;3.10;2.80;;;15.00;1.00;;;;;;5035532;28;20462;-88
2023/07/21 02:58:54;;;;;;;4.57;3.80;;;14.80;99.90;;;;;;5032274;28;20439;-88
2023/07/21 03:01:21;;;;;;;3.00;2.70;;;14.80;1.00;;;;;;5033089;28;20515;-89
2023/07/21 03:03:47;;;;;;;4.03;2.87;;;14.70;1.00;;;;;;5037477;28;20479;-87
2023/07/21 03:06:16;;;;;;;3.67;2.80;;;14.60;1.00;;;;;;5039420;28;20491;-87
2023/07/21 03:08:43;;;;;;;5.23;3.17;;;;;;;;;;5039394;28;20442;-88
2023/07/21 03:11:11;;;;;;;4.97;3.60;;;14.40;17.20;;;;;;5037899;28;20499;-88
2023/07/21 03:13:38;;;;;;;9.60;3.07;;;14.20;1.00;;;;;;5027223;28;20487;-88
2023/07/21 03:16:05;;;;;;;3.50;3.00;;;14.10;99.90;;;;;;5022055;28;20480;-88
2023/07/21 03:18:32;;;;;;;3.17;2.87;;;14.10;1.00;;;;;;5020841;28;20454;-89
2023/07/21 03:20:59;;;;;;;3.37;3.07;;;14.00;99.90;;;;;;5019588;28;20502;-89
2023/07/21 03:23:27;;;;;;;4.47;3.67;;;14.30;99.90;;;;;;5019623;28;20823;-88
2023/07/21 03:25:55;;;;;;;3.97;3.43;;;14.10;1.00;;;;;;5021390;28;20455;-88
2023/07/21 03:28:23;;;;;;;4.23;3.17;;;14.20;99.90;;;;;;5031433;28;20527;-89
2023/07/21 03:30:57;;;;;;;4.37;3.97;;;14.00;1.00;;;;;;5021301;28;20488;-88
2023/07/21 03:33:24;;;;;;;4.63;3.43;;;14.20;1.00;;;;;;5019383;28;20466;-89
2023/07/21 03:35:59;;;;;;;5.70;3.57;;;14.20;1.00;;;;;;5020001;28;20451;-89
2023/07/21 03:38:28;;;;;;;6.37;3.63;;;14.20;1.00;;;;;;5019291;28;20449;-89
2023/07/21 03:41:02;;;;;;;3.57;3.07;;;14.30;99.90;;;;;;5032797;28;20440;-88
2023/07/21 03:43:29;;;;;;;3.73;3.43;;;14.30;1.00;;;;;;5021963;28;20455;-87
2023/07/21 03:45:58;;;;;;;3.57;2.60;;;14.50;99.90;;;;;;5020829;28;20447;-88
2023/07/21 03:48:25;;;;;;;3.07;2.20;;;14.40;99.90;;;;;;5018699;28;20451;-87
2023/07/21 03:50:56;;;;;;;3.83;3.40;;;14.60;1.00;;;;;;5017941;28;20491;-88
2023/07/21 03:53:22;;;;;;;3.90;3.00;;;14.60;99.90;;;;;;5017962;28;20490;-88
2023/07/21 03:55:51;;;;;;;2.83;2.60;;;14.60;1.00;;;;;;5018281;28;20510;-88
2023/07/21 03:58:18;;;;;;;3.20;2.90;;;14.60;1.00;;;;;;5019106;28;20448;-89
2023/07/21 04:00:45;;;;;;;5.63;3.03;;;14.60;1.00;;;;;;5018614;28;20454;-89
2023/07/21 04:03:13;;;;;;;3.30;2.80;;;14.80;99.90;;;;;;5018549;28;20453;-88
2023/07/21 04:05:40;;;;;;;5.30;2.93;;;14.90;99.90;;;;;;5019383;28;20474;-88
2023/07/21 04:08:07;;;;;;;3.90;3.20;;;14.90;1.00;;;;;;5017711;28;20972;-88
2023/07/21 04:10:34;;;;;;;5.13;2.50;;;14.90;99.90;;;;;;5020478;28;21033;-88
2023/07/21 04:13:02;;;;;;;2.17;2.07;;;14.90;1.00;;;;;;5018618;28;20459;-88
2023/07/21 04:15:29;;;;;;;2.43;2.23;;;14.90;1.00;;;;;;5017337;28;21075;-88
2023/07/21 04:17:56;;;;;;;4.50;2.67;;;15.00;1.00;;;;;;5017787;28;20451;-88
2023/07/21 04:20:23;;;;;;;3.03;2.83;;;15.00;99.90;;;;;;5017798;28;20448;-89
2023/07/21 04:22:51;;;;;;;4.57;3.13;;;15.00;1.00;;;;;;5023762;28;20487;-89
2023/07/21 04:25:18;;;;;;;7.20;3.63;;;15.00;99.90;;;;;;5018831;28;20892;-88
2023/07/21 04:27:47;;;;;;;4.67;3.90;;;15.10;99.90;;;;;;5018256;28;20516;-88
2023/07/21 04:30:15;;;;;;;5.43;4.10;;;15.40;37.30;;;;;;5017377;28;20995;-89
2023/07/21 04:32:42;;;;;;;5.93;3.23;;;15.30;1.00;;;;;;5018058;28;20448;-89
2023/07/21 04:35:09;;;;;;;5.23;3.87;;;15.50;99.90;;;;;;5017427;28;20468;-88
2023/07/21 04:37:36;;;;;;;5.97;3.83;;;15.50;1.00;;;;;;5017008;28;21011;-89
2023/07/21 04:40:05;;;;;;;3.97;3.40;;;15.60;1.00;;;;;;5018469;28;20447;-89
2023/07/21 04:42:32;;;;;;;3.73;3.43;;;15.80;1.00;;;;;;5021253;28;20458;-89
2023/07/21 04:44:59;;;;;;;7.63;3.40;;;15.70;1.00;;;;;;5020208;28;20475;-91
2023/07/21 04:47:28;;;;;;;4.30;3.60;;;15.70;1.00;;;;;;5022048;28;20543;-90
2023/07/21 04:49:54;;;;;;;7.77;3.23;;;15.90;1.00;;;;;;5021356;28;20554;-90
2023/07/21 04:52:22;;;;;;;7.57;4.17;;;15.30;1.00;;;;;;5021578;28;20453;-89
2023/07/21 04:54:49;;;;;;;5.20;4.80;;;15.60;1.00;;;;;;5020949;28;20486;-89
2023/07/21 04:57:16;;;;;;;5.50;4.20;;;15.90;1.00;;;;;;5020991;28;20443;-89
2023/07/21 04:59:43;;;;;;;7.53;5.07;;;15.80;1.00;;;;;;5020770;28;20540;-89
2023/07/21 05:02:10;;;;;;;7.07;6.30;;;16.00;1.00;;;;;;5022195;28;20453;-89
2023/07/21 05:04:38;;;;;;;13.10;8.30;;;16.00;1.00;;;;;;5027598;28;21062;-88
2023/07/21 05:07:08;;;;;;;7.80;7.10;;;15.60;1.00;;;;;;5026362;28;20470;-89
2023/07/21 05:09:35;;;;;;;9.77;8.57;;;16.00;1.00;;;;;;5025422;28;20217;-87
2023/07/21 05:12:02;;;;;;;12.57;8.97;;;15.90;1.00;;;;;;5023395;28;20832;-88
2023/07/21 05:14:29;;;;;;;11.90;9.70;;;15.70;1.00;;;;;;5021319;28;20511;-88
2023/07/21 05:16:56;;;;;;;9.93;9.03;;;15.90;1.00;;;;;;5022738;28;20549;-89
2023/07/21 05:19:23;;;;;;;13.03;8.97;;;15.70;1.00;;;;;;5022391;28;20452;-89
2023/07/21 05:21:51;;;;;;;10.43;9.10;;;15.70;1.00;;;;;;5020726;28;20555;-89
2023/07/21 05:24:18;;;;;;;12.20;9.30;;;15.70;1.00;;;;;;5020992;28;20468;-89
2023/07/21 05:26:46;;;;;;;10.93;9.87;;;15.70;1.00;;;;;;5021632;28;20503;-88
2023/07/21 05:29:13;;;;;;;48.67;34.30;;;15.70;1.00;;;;;;5020486;28;20454;-88
2023/07/21 05:31:40;;;;;;;9.47;8.50;;;15.40;1.00;;;;;;5027610;28;20488;-88
2023/07/21 05:34:07;;;;;;;12.80;8.10;;;15.80;1.00;;;;;;5040923;28;20483;-88
2023/07/21 05:36:34;;;;;;;9.53;6.70;;;15.90;1.00;;;;;;5035903;28;20917;-89
2023/07/21 05:39:03;;;;;;;6.40;5.90;;;15.60;1.00;;;;;;5024924;28;20462;-89
2023/07/21 05:41:29;;;;;;;7.73;6.93;;;15.90;1.00;;;;;;5022392;28;20456;-89
2023/07/21 05:43:58;;;;;;;9.37;8.20;;;16.00;1.00;;;;;;5021110;28;20473;-88
2023/07/21 05:46:25;;;;;;;9.17;8.30;;;16.00;1.00;;;;;;5020537;28;20449;-88
2023/07/21 05:48:51;;;;;;;8.70;7.80;;;16.00;1.00;;;;;;5023924;28;20450;-88
2023/07/21 05:51:18;;;;;;;10.73;8.03;;;16.00;1.00;;;;;;5024086;28;20501;-88
2023/07/21 05:53:45;;;;;;;10.70;8.03;;;16.00;1.00;;;;;;5020424;28;20573;-88
2023/07/21 05:56:13;;;;;;;7.27;6.57;;;16.00;1.00;;;;;;5023875;28;20434;-89
2023/07/21 05:58:41;;;;;;;6.80;6.30;;;16.10;1.00;;;;;;5032773;28;20899;-89
2023/07/21 06:01:10;;;;;;;11.10;7.30;;;16.20;1.00;;;;;;5023910;28;20525;-89
2023/07/21 06:03:38;;;;;;;7.70;6.90;;;16.70;99.90;;;;;;5022509;28;20464;-89
2023/07/21 06:06:05;;;;;;;6.43;5.67;;;16.30;1.00;;;;;;5023505;28;20454;-89
2023/07/21 06:08:34;;;;;;;8.40;5.30;;;16.40;1.00;;;;;;5024239;28;20458;-89
2023/07/21 06:11:02;;;;;;;4.50;4.10;;;16.40;1.00;;;;;;5021873;28;21020;-89
2023/07/21 06:13:31;;;;;;;6.83;6.13;;;16.60;9.50;;;;;;5028548;28;20460;-88
2023/07/21 06:15:58;;;;;;;7.73;7.00;;;16.20;1.00;;;;;;5036917;28;20453;-89
2023/07/21 06:18:24;;;;;;;7.23;6.60;;;16.20;1.00;;;;;;5027090;28;20442;-89
2023/07/21 06:20:52;;;;;;;7.83;6.23;;;16.30;1.00;;;;;;5025360;28;20452;-88
2023/07/21 06:23:19;;;;;;;8.80;7.60;;;16.60;1.00;;;;;;5026457;28;20976;-89
2023/07/21 06:25:46;;;;;;;7.50;6.80;;;16.40;1.00;;;;;;5026765;28;20458;-89
2023/07/21 06:28:13;;;;;;;7.60;6.90;;;16.40;1.00;;;;;;5028473;28;20977;-89
2023/07/21 06:30:42;;;;;;;8.90;6.97;;;16.40;1.00;;;;;;5034719;28;20547;-88
2023/07/21 06:33:09;;;;;;;8.23;6.13;;;16.50;1.00;;;;;;5034933;28;20450;-88
2023/07/21 06:35:35;;;;;;;8.13;7.33;;;16.60;1.00;;;;;;5031726;28;20565;-89
2023/07/21 06:38:03;;;;;;;6.63;6.03;;;;;;;;;;5030166;28;20492;-88
2023/07/21 06:40:31;;;;;;;8.40;7.00;;;16.60;1.00;;;;;;5028473;28;20449;-89
2023/07/21 06:42:58;;;;;;;7.90;6.93;;;;;;;;;;5030275;28;20445;-89
2023/07/21 06:45:25;;;;;;;6.80;5.83;;;16.60;1.00;;;;;;5020318;28;20480;-89
2023/07/21 06:47:54;;;;;;;13.33;7.87;;;16.70;1.00;;;;;;5020177;28;20458;-88
2023/07/21 06:50:21;;;;;;;8.60;7.80;;;16.70;1.00;;;;;;5019453;28;20486;-89
2023/07/21 06:52:47;;;;;;;12.87;8.80;;;16.70;1.00;;;;;;5019615;28;20531;-89
2023/07/21 06:55:14;;;;;;;15.10;11.83;;;16.70;1.00;;;;;;5019909;28;20502;-89
2023/07/21 06:57:42;;;;;;;17.13;9.97;;;16.70;1.00;;;;;;5020111;28;20455;-89
2023/07/21 07:00:12;;;;;;;12.10;8.50;;;16.70;1.00;;;;;;5026436;28;20518;-90
2023/07/21 07:02:39;;;;;;;13.13;9.17;;;16.70;1.00;;;;;;5022817;28;20432;-89
2023/07/21 07:05:08;;;;;;;12.93;8.60;;;17.00;1.00;;;;;;5024262;28;20558;-89
2023/07/21 07:07:36;;;;;;;10.50;9.30;;;;;;;;;;5030655;28;20474;-89
2023/07/21 07:10:03;;;;;;;18.30;10.40;;;16.80;1.00;;;;;;5027102;28;20467;-91
2023/07/21 07:12:30;;;;;;;13.20;9.23;;;;;;;;;;5034857;28;20443;-90
2023/07/21 07:14:58;;;;;;;12.83;9.63;;;16.80;1.00;;;;;;5039067;28;20533;-87
2023/07/21 07:17:25;;;;;;;21.17;10.37;;;16.80;1.00;;;;;;5036597;28;20463;-89
2023/07/21 07:19:52;;;;;;;16.27;11.10;;;16.80;1.00;;;;;;5028782;28;20888;-89
2023/07/21 07:22:20;;;;;;;12.07;9.60;;;16.70;1.00;;;;;;5024813;28;20455;-89
2023/07/21 07:24:47;;;;;;;17.47;9.20;;;16.80;1.00;;;;;;5019930;28;20471;-88
2023/07/21 07:27:14;;;;;;;16.80;11.90;;;16.80;1.00;;;;;;5021375;28;20529;-87
2023/07/21 07:29:41;;;;;;;19.17;10.20;;;16.80;1.00;;;;;;5025035;28;20509;-88
2023/07/21 07:32:09;;;;;;;16.30;8.80;;;16.80;1.00;;;;;;5021046;28;20489;-87
2023/07/21 07:34:36;;;;;;;10.27;8.53;;;16.80;1.00;;;;;;5025666;28;20450;-87
2023/07/21 07:37:04;;;;;;;12.77;8.27;;;16.90;1.00;;;;;;5036553;28;20434;-88
2023/07/21 07:39:32;;;;;;;16.67;8.60;;;16.90;1.00;;;;;;5035081;28;20473;-89
2023/07/21 07:42:00;;;;;;;9.47;7.37;;;17.20;99.30;;;;;;5035753;28;20428;-89
2023/07/21 07:44:27;;;;;;;6.90;5.87;;;17.20;1.00;;;;;;5033458;28;20478;-89
2023/07/21 07:46:56;;;;;;;7.57;6.10;;;17.50;44.40;;;;;;5024379;28;20552;-87
2023/07/21 07:49:23;;;;;;;4.60;4.20;;;17.50;1.00;;;;;;5031918;28;20437;-88
2023/07/21 07:51:50;;;;;;;8.90;4.60;;;17.60;1.00;;;;;;5038291;28;20462;-88
2023/07/21 07:54:17;;;;;;;10.33;4.53;;;17.70;1.00;;;;;;5038441;28;20470;-88
2023/07/21 07:56:46;;;;;;;5.07;4.00;;;17.80;1.00;;;;;;5035269;28;20931;-89
2023/07/21 07:59:13;;;;;;;5.63;4.50;;;17.90;1.00;;;;;;5030728;28;20454;-90
2023/07/21 08:01:40;;;;;;;6.60;4.20;;;18.00;1.00;;;;;;5025576;28;20454;-89
2023/07/21 08:04:07;;;;;;;4.20;3.90;;;18.20;1.00;;;;;;5018234;28;20499;-89
2023/07/21 08:06:34;;;;;;;4.60;3.60;;;18.30;1.00;;;;;;5031356;22;20495;-89
2023/07/21 08:09:03;;;;;;;6.20;3.00;;;18.30;99.90;;;;;;5017890;28;20475;-88
2023/07/21 08:11:30;;;;;;;6.53;3.83;;;18.00;99.90;;;;;;5034060;28;20463;-88
2023/07/21 08:13:58;;;;;;;5.00;3.77;;;18.20;99.90;;;;;;5038394;28;20499;-89
2023/07/21 08:16:27;;;;;;;4.73;2.90;;;18.40;61.20;;;;;;5041881;28;20474;-88
2023/07/21 08:18:54;;;;;;;5.83;3.60;;;18.00;99.90;;;;;;5042653;28;20419;-86
2023/07/21 08:21:22;;;;;;;4.63;3.57;;;18.20;99.90;;;;;;5039757;28;20461;-87
2023/07/21 08:23:50;;;;;;;4.30;3.30;;;19.00;99.90;;;;;;5038825;28;20447;-87
2023/07/21 08:26:19;;;;;;;2.93;2.73;;;18.00;99.90;;;;;;5040125;28;20491;-88
2023/07/21 08:28:46;;;;;;;4.50;3.17;;;18.10;99.90;;;;;;5040649;28;20439;-87
2023/07/21 08:31:15;;;;;;;4.87;2.40;;;18.20;99.90;;;;;;5040714;28;20483;-88
2023/07/21 08:33:42;;;;;;;4.40;2.57;;;18.40;99.90;;;;;;5028142;28;20471;-87
2023/07/21 08:36:10;;;;;;;4.43;2.20;;;18.30;99.90;;;;;;5021704;28;20473;-88
2023/07/21 08:38:37;;;;;;;2.40;2.13;;;18.30;99.90;;;;;;5021134;28;20530;-88
2023/07/21 08:41:05;;;;;;;3.13;2.30;;;18.60;99.90;;;;;;5020808;28;20542;-88
2023/07/21 08:43:33;;;;;;;3.30;2.03;;;18.20;99.90;;;;;;5026186;28;20873;-89
2023/07/21 08:46:01;;;;;;;2.53;2.33;;;18.20;99.90;;;;;;5022500;28;20474;-88
2023/07/21 08:48:30;;;;;;;2.87;2.10;;;18.40;99.90;;;;;;5026369;28;20447;-88
2023/07/21 08:50:57;;;;;;;2.60;2.40;;;18.40;99.90;;;;;;5020790;28;20566;-88
2023/07/21 08:53:26;;;;;;;4.70;3.10;;;18.20;99.90;;;;;;5019986;28;20831;-88
2023/07/21 08:55:57;;;;;;;4.40;2.40;;;18.30;1.00;;;;;;5019018;28;21017;-88
2023/07/21 08:58:25;;;;;;;2.30;2.10;;;18.20;99.90;;;;;;5025903;28;20478;-88
2023/07/21 09:00:53;;;;;;;1.90;1.70;;;18.20;36.90;;;;;;5019286;28;20952;-87
2023/07/21 09:03:22;;;;;;;2.53;1.93;;;18.40;99.90;;;;;;5020030;28;20857;-89
2023/07/21 09:05:52;;;;;;;4.93;1.90;;;18.40;99.90;;;;;;5021181;28;20487;-88
2023/07/21 09:08:20;;;;;;;2.73;1.80;;;18.40;99.90;;;;;;5022673;28;20453;-88
2023/07/21 09:10:47;;;;;;;2.17;1.67;;;18.30;99.90;;;;;;5040022;28;20475;-87
2023/07/21 09:13:16;;;;;;;9.30;2.40;;;18.60;1.00;;;;;;5040868;28;20447;-88
2023/07/21 09:15:51;;;;;;;2.63;1.83;;;18.50;1.00;;;;;;5038759;28;20502;-89
2023/07/21 09:18:18;;;;;;;4.17;2.13;;;18.30;99.90;;;;;;5034462;28;20613;-89
2023/07/21 09:20:49;;;;;;;3.20;2.80;;;18.20;99.90;;;;;;5030577;28;20450;-89
2023/07/21 09:23:20;;;;;;;6.70;3.37;;;18.20;99.90;;;;;;5037578;28;20440;-89
2023/07/21 09:25:55;;;;;;;2.67;2.20;;;18.20;99.90;;;;;;5034944;28;20471;-88
2023/07/21 09:28:22;;;;;;;5.53;2.20;;;18.50;1.00;;;;;;5035571;28;20427;-88
2023/07/21 09:30:54;;;;;;;4.50;2.10;;;18.30;99.90;;;;;;5032422;28;20475;-87
2023/07/21 09:33:25;;;;;;;2.77;2.57;;;18.50;99.90;;;;;;5037660;28;20424;-89
2023/07/21 09:35:52;;;;;;;5.43;2.30;;;;;;;;;;5032669;28;20474;-87
2023/07/21 09:38:26;;;;;;;2.50;1.97;;;18.60;99.90;;;;;;5034317;28;20443;-87
2023/07/21 09:41:00;;;;;;;3.87;2.10;;;18.80;99.90;;;;;;5028964;28;20515;-88
2023/07/21 09:43:29;;;;;;;9.07;2.27;;;18.70;99.90;;;;;;5025354;28;20439;-88
2023/07/21 09:45:57;;;;;;;8.53;2.73;;;18.80;99.90;;;;;;5023073;28;20543;-87
2023/07/21 09:48:37;;;;;;;2.47;2.00;;;18.80;99.90;;;;;;5022217;28;20534;-90
2023/07/21 09:51:07;;;;;;;4.70;2.03;;;19.20;99.90;;;;;;5024356;28;20476;-88
2023/07/21 09:53:42;;;;;;;3.97;1.93;;;19.10;99.90;;;;;;5033543;28;20522;-89
2023/07/21 09:56:11;;;;;;;4.90;3.53;;;19.10;99.90;;;;;;5027458;28;20463;-88
2023/07/21 09:58:42;;;;;;;4.80;2.47;;;19.30;99.90;;;;;;5031062;28;20458;-88
2023/07/21 10:01:10;;;;;;;2.17;1.63;;;19.30;1.00;;;;;;5026323;28;20431;-88
2023/07/21 10:03:38;;;;;;;3.73;2.20;;;19.30;99.90;;;;;;5027435;28;20469;-88
2023/07/21 10:06:07;;;;;;;4.90;2.40;;;19.30;99.90;;;;;;5027457;28;20483;-90
2023/07/21 10:08:36;;;;;;;3.43;2.20;;;;;;;;;;5026183;28;20561;-90
2023/07/21 10:11:08;;;;;;;5.07;2.17;;;19.10;99.90;;;;;;5028322;28;20454;-90
2023/07/21 10:13:44;;;;;;;3.47;2.00;;;19.10;99.90;;;;;;5026040;28;20459;-90
2023/07/21 10:16:11;;;;;;;2.67;2.47;;;;;;;;;;5027695;28;20487;-89
2023/07/21 10:18:59;;;;;;;2.17;1.97;;;19.00;99.90;;;;;;5025879;28;20478;-89
2023/07/21 10:21:31;;;;;;;2.90;2.60;;;19.10;99.90;;;;;;5025967;28;20432;-89
2023/07/21 10:24:01;;;;;;;4.33;2.20;;;19.10;99.90;;;;;;5022861;28;20446;-89
2023/07/21 10:26:31;;;;;;;2.53;2.27;;;19.20;99.90;;;;;;5022804;28;20452;-89
2023/07/21 10:29:15;;;;;;;4.60;2.20;;;19.30;51.90;;;;;;5029733;28;20447;-88
2023/07/21 10:31:52;;;;;;;2.70;2.23;;;19.40;99.90;;;;;;5029118;28;20998;-90
2023/07/21 10:34:19;;;;;;;3.53;3.23;;;19.40;99.90;;;;;;5025498;28;20931;-89
2023/07/21 10:36:56;;;;;;;8.23;2.73;;;19.60;16.70;;;;;;5024643;28;20551;-89
2023/07/21 10:39:24;;;;;;;3.83;2.20;;;19.40;99.90;;;;;;5024695;28;20455;-89
2023/07/21 10:41:54;;;;;;;13.33;3.17;;;19.50;99.90;;;;;;5029847;28;20452;-89
2023/07/21 10:44:21;;;;;;;9.33;6.07;;;19.40;13.60;;;;;;5038936;28;20431;-90
2023/07/21 10:46:54;;;;;;;8.63;3.10;;;19.60;99.90;;;;;;5037084;28;20463;-87
2023/07/21 10:49:21;;;;;;;3.23;2.50;;;19.60;99.90;;;;;;5038304;28;20436;-87
2023/07/21 10:51:50;;;;;;;2.37;2.17;;;19.80;99.90;;;;;;5037795;28;20485;-88
2023/07/21 10:54:18;;;;;;;6.93;2.70;;;19.80;99.90;;;;;;5029361;28;20436;-88
2023/07/21 10:56:49;;;;;;;1.67;1.50;;;20.00;99.90;;;;;;5032289;28;20452;-87
2023/07/21 10:59:19;;;;;;;3.83;1.77;;;20.10;21.20;;;;;;5038999;28;20424;-88
2023/07/21 11:01:47;;;;;;;7.77;2.67;;;20.10;1.00;;;;;;5039066;28;20440;-88
2023/07/21 11:04:15;;;;;;;7.27;3.13;;;;;;;;;;5039034;28;20474;-87
2023/07/21 11:06:43;;;;;;;7.17;2.33;;;20.20;99.90;;;;;;5037552;28;20483;-88
2023/07/21 11:09:12;;;;;;;3.20;2.33;;;20.10;99.90;;;;;;5037751;28;20440;-87
2023/07/21 11:11:44;;;;;;;5.40;2.40;;;19.90;99.90;;;;;;5035779;28;20559;-85
2023/07/21 11:14:12;;;;;;;3.60;2.93;;;19.90;99.90;;;;;;5031381;28;20439;-85
2023/07/21 11:20:42;;;;;;;6.23;2.40;;;;;;;;;;5015630;28;20459;-88
2023/07/21 11:26:40;;;;;;;3.70;2.20;;;19.90;99.90;;;;;;4993163;28;20466;-89
2023/07/21 11:29:10;;;;;;;3.40;2.60;;;20.00;99.90;;;;;;5027074;28;20513;-87
2023/07/21 11:35:02;;;;;;;2.47;2.27;;;19.70;99.90;;;;;;5017750;28;20447;-89
2023/07/21 11:37:57;;;;;;;3.37;3.10;;;19.50;1.00;;;;;;5027135;28;20455;-89
2023/07/21 11:40:44;;;;;;;3.40;2.80;;;19.70;99.90;;;;;;5021317;28;20474;-90
2023/07/21 11:49:17;;;;;;;5.63;2.90;;;19.70;99.90;;;;;;5018054;28;20470;-89
2023/07/21 11:51:53;;;;;;;3.30;2.37;;;;;;;;;;5026775;28;20475;-90
2023/07/21 11:54:30;;;;;;;3.73;2.73;;;19.70;99.90;;;;;;5039989;28;20436;-89
2023/07/21 11:57:27;;;;;;;3.73;3.20;;;19.80;99.90;;;;;;5029274;28;20950;-89
2023/07/21 12:51:51;;;;;;;;;;;;;;;;;;;;;
2023/07/21 12:54:20;;;;;;;3.20;2.50;;;19.70;99.90;;;;;;4950826;22;20499;-88
2023/07/21 12:56:47;;;;;;;2.60;2.40;;;;;;;;;;5021649;28;20465;-87
2023/07/21 12:59:14;;;;;;;2.40;2.17;;;19.60;99.90;;;;;;5023474;28;20432;-88
2023/07/21 13:01:41;;;;;;;2.33;2.20;;;19.60;99.90;;;;;;5022495;28;20475;-87
2023/07/21 13:04:08;;;;;;;2.40;2.20;;;19.60;99.90;;;;;;5030702;28;20470;-88
2023/07/21 13:06:34;;;;;;;2.87;2.67;;;19.60;99.90;;;;;;5030288;28;20448;-88
2023/07/21 13:09:01;;;;;;;2.00;1.90;;;19.70;99.90;;;;;;5030636;28;20463;-88
2023/07/21 13:11:30;;;;;;;3.67;3.37;;;19.80;1.00;;;;;;5025929;28;20501;-88
2023/07/21 13:13:56;;;;;;;4.20;3.67;;;19.80;99.90;;;;;;5021487;28;20491;-88
2023/07/21 13:16:23;;;;;;;4.27;3.60;;;19.50;99.90;;;;;;5023449;28;20464;-88
2023/07/21 13:18:50;;;;;;;3.07;2.50;;;19.90;99.90;;;;;;5022947;28;20886;-88
2023/07/21 13:21:17;;;;;;;3.60;2.10;;;20.50;99.90;;;;;;5021802;28;20474;-89
2023/07/21 13:23:44;;;;;;;2.63;2.43;;;19.80;99.90;;;;;;5023843;28;20472;-87
2023/07/21 13:26:11;;;;;;;4.27;3.90;;;19.70;99.90;;;;;;5032364;28;20447;-89
2023/07/21 13:28:39;;;;;;;5.23;3.70;;;19.60;99.90;;;;;;5022069;28;20475;-89
2023/07/21 13:31:06;;;;;;;2.90;2.70;;;19.70;99.90;;;;;;5021943;28;20458;-89
2023/07/21 13:33:33;;;;;;;3.00;2.80;;;19.90;26.90;;;;;;5022073;28;20486;-88
2023/07/21 13:35:59;;;;;;;3.93;2.97;;;19.90;99.90;;;;;;5021384;28;20454;-88
2023/07/21 13:38:27;;;;;;;3.77;3.10;;;20.00;1.00;;;;;;5020752;28;20546;-87
2023/07/21 13:40:55;;;;;;;5.23;3.27;;;19.70;99.90;;;;;;5021822;28;20451;-87
2023/07/21 13:43:22;;;;;;;8.90;7.37;;;19.70;1.00;;;;;;5036121;28;20451;-85
2023/07/21 13:45:50;;;;;;;3.47;2.90;;;19.90;99.90;;;;;;5040455;28;20490;-86
2023/07/21 13:48:17;;;;;;;5.40;2.93;;;19.80;99.90;;;;;;5040288;28;20467;-87
2023/07/21 13:50:44;;;;;;;3.93;2.50;;;19.50;23.40;;;;;;5038398;28;20448;-88
2023/07/21 13:53:10;;;;;;;6.97;2.60;;;19.80;99.90;;;;;;5025145;28;20494;-87
2023/07/21 13:55:37;;;;;;;3.07;2.77;;;19.70;99.90;;;;;;5024741;28;20479;-89
2023/07/21 13:58:04;;;;;;;4.40;2.90;;;19.80;99.90;;;;;;5025823;28;20992;-89
2023/07/21 14:00:31;;;;;;;3.50;2.50;;;20.20;99.90;;;;;;5024903;28;20482;-89
2023/07/21 14:02:59;;;;;;;2.60;2.33;;;20.00;99.90;;;;;;5025081;28;20454;-89
2023/07/21 14:08:08;;;;;;;3.97;2.27;;;20.00;99.90;;;;;;5272413;22;21039;-86
2023/07/21 14:10:35;;;;;;;2.70;2.50;;;20.10;99.90;;;;;;5021817;28;20436;-87
2023/07/21 14:13:02;;;;;;;2.53;2.30;;;20.10;99.90;;;;;;5003733;28;20483;-88